createdAt,value
2017-11-04T00:01:42.629Z,97936.70
2017-11-04T00:04:10.881Z,97934.56
2017-11-04T00:06:39.165Z,97933.16
2017-11-04T00:09:07.440Z,97928.41
2017-11-04T00:11:35.691Z,97931.72
2017-11-04T00:14:04.709Z,97926.57
2017-11-04T00:16:32.966Z,97933.81
2017-11-04T00:19:01.370Z,97939.46
2017-11-04T00:21:29.613Z,97947.33
2017-11-04T00:23:57.866Z,97943.89
2017-11-04T00:26:26.113Z,97931.36
2017-11-04T00:28:54.370Z,97926.38
2017-11-04T00:31:22.621Z,97938.77
2017-11-04T00:33:51.646Z,97935.02
2017-11-04T00:36:19.885Z,97925.26
2017-11-04T00:38:48.911Z,97922.84
2017-11-04T00:41:17.153Z,97924.38
2017-11-04T00:43:46.177Z,97924.77
2017-11-04T00:46:14.438Z,97923.53
2017-11-04T00:48:43.453Z,97921.55
2017-11-04T00:51:11.705Z,97922.80
2017-11-04T00:53:39.969Z,97921.00
2017-11-04T00:56:08.986Z,97921.02
2017-11-04T00:58:37.243Z,97916.52
2017-11-04T01:01:05.501Z,97918.19
2017-11-04T01:03:33.753Z,97915.37
2017-11-04T01:06:02.001Z,97911.87
2017-11-04T01:08:30.257Z,97901.23
2017-11-04T01:10:58.510Z,97905.66
2017-11-04T01:13:27.533Z,97902.05
2017-11-04T01:15:55.770Z,97900.22
2017-11-04T01:18:24.027Z,97897.50
2017-11-04T01:20:52.277Z,97894.62
2017-11-04T01:23:20.538Z,97890.34
2017-11-04T01:25:48.796Z,97889.58
2017-11-04T01:28:17.810Z,97889.91
2017-11-04T01:30:46.063Z,97892.19
2017-11-04T01:33:15.087Z,97888.23
2017-11-04T01:35:43.333Z,97888.84
2017-11-04T01:38:11.593Z,97883.14
2017-11-04T01:40:40.607Z,97879.41
2017-11-04T01:43:08.856Z,97878.70
2017-11-04T01:45:37.102Z,97878.16
2017-11-04T01:48:05.355Z,97882.75
2017-11-04T01:50:33.610Z,97887.80
2017-11-04T01:53:01.874Z,97881.87
2017-11-04T01:55:30.892Z,97880.48
2017-11-04T01:57:59.151Z,97878.22
2017-11-04T02:00:27.393Z,97881.94
2017-11-04T02:02:55.653Z,97873.31
2017-11-04T02:05:23.900Z,97873.83
2017-11-04T02:07:52.149Z,97870.08
2017-11-04T02:10:20.410Z,97873.98
2017-11-04T02:12:49.422Z,97861.41
2017-11-04T02:15:17.678Z,97867.50
2017-11-04T02:17:46.691Z,97865.77
2017-11-04T02:20:14.949Z,97868.00
2017-11-04T02:22:43.962Z,97861.98
2017-11-04T02:25:12.217Z,97861.66
2017-11-04T02:27:41.241Z,97861.52
2017-11-04T02:30:09.500Z,97852.34
2017-11-04T02:32:37.754Z,97850.27
2017-11-04T02:35:06.783Z,97850.16
2017-11-04T02:37:35.024Z,97847.22
2017-11-04T02:40:04.042Z,97841.91
2017-11-04T02:42:32.294Z,97849.05
2017-11-04T02:45:01.323Z,97836.33
2017-11-04T02:47:29.578Z,97836.92
2017-11-04T02:49:57.828Z,97830.77
2017-11-04T02:52:26.069Z,97827.39
2017-11-04T02:54:54.327Z,97819.48
2017-11-04T02:57:22.569Z,97817.39
2017-11-04T02:59:51.589Z,97831.28
2017-11-04T03:02:19.835Z,97832.38
2017-11-04T03:04:48.869Z,97828.87
2017-11-04T03:07:17.118Z,97835.19
2017-11-04T03:09:45.370Z,97836.11
2017-11-04T03:12:13.614Z,97835.89
2017-11-04T03:14:41.875Z,97837.81
2017-11-04T03:17:10.128Z,97836.08
2017-11-04T03:19:38.377Z,97830.06
2017-11-04T03:22:07.391Z,97835.75
2017-11-04T03:24:35.641Z,97830.16
2017-11-04T03:27:04.655Z,97835.25
2017-11-04T03:29:32.906Z,97837.95
2017-11-04T03:32:01.159Z,97832.97
2017-11-04T03:34:29.411Z,97826.03
2017-11-04T03:36:57.655Z,97823.67
2017-11-04T03:39:25.938Z,97823.92
2017-11-04T03:41:54.189Z,97822.40
2017-11-04T03:44:23.218Z,97819.85
2017-11-04T03:46:51.476Z,97814.37
2017-11-04T03:49:19.742Z,97812.52
2017-11-04T03:51:48.762Z,97811.94
2017-11-04T03:54:17.025Z,97802.50
2017-11-04T03:56:45.285Z,97802.19
2017-11-04T03:59:14.304Z,97806.08
2017-11-04T04:01:42.562Z,97802.72
2017-11-04T04:04:11.580Z,97802.61
2017-11-04T04:06:39.865Z,97798.37
2017-11-04T04:09:08.121Z,97805.19
2017-11-04T04:11:36.371Z,97794.72
2017-11-04T04:14:05.389Z,97800.35
2017-11-04T04:16:33.642Z,97794.20
2017-11-04T04:19:02.669Z,97798.67
2017-11-04T04:21:30.923Z,97788.39
2017-11-04T04:23:59.195Z,97791.09
2017-11-04T04:26:27.457Z,97790.19
2017-11-04T04:28:56.478Z,97783.44
2017-11-04T04:31:24.727Z,97778.17
2017-11-04T04:33:53.746Z,97782.52
2017-11-04T04:36:21.986Z,97781.53
2017-11-04T04:38:51.010Z,97776.19
2017-11-04T04:41:19.290Z,97783.75
2017-11-04T04:43:47.546Z,97780.45
2017-11-04T04:46:16.568Z,97783.10
2017-11-04T04:48:44.831Z,97782.52
2017-11-04T04:51:13.087Z,97786.66
2017-11-04T04:53:42.098Z,97792.75
2017-11-04T04:56:10.353Z,97787.62
2017-11-04T04:58:39.389Z,97790.14
2017-11-04T05:01:07.638Z,97792.86
2017-11-04T05:03:35.886Z,97798.47
2017-11-04T05:06:04.141Z,97794.58
2017-11-04T05:08:32.394Z,97797.61
2017-11-04T05:11:00.654Z,97792.81
2017-11-04T05:13:28.905Z,97790.16
2017-11-04T05:15:57.943Z,97791.17
2017-11-04T05:18:26.181Z,97786.48
2017-11-04T05:20:54.431Z,97783.19
2017-11-04T05:23:22.675Z,97783.84
2017-11-04T05:25:50.928Z,97775.95
2017-11-04T05:28:19.175Z,97774.89
2017-11-04T05:30:48.190Z,97769.13
2017-11-04T05:33:16.439Z,97766.18
2017-11-04T05:35:45.463Z,97764.58
2017-11-04T05:38:13.709Z,97763.84
2017-11-04T05:40:42.732Z,97751.78
2017-11-04T05:43:10.977Z,97755.00
2017-11-04T05:45:39.999Z,97750.51
2017-11-04T05:48:08.242Z,97750.51
2017-11-04T05:50:37.282Z,97749.23
2017-11-04T05:53:05.509Z,97753.81
2017-11-04T05:55:34.543Z,97754.28
2017-11-04T05:58:02.788Z,97761.66
2017-11-04T06:00:31.810Z,97758.78
2017-11-04T06:03:00.058Z,97757.95
2017-11-04T06:05:29.083Z,97757.64
2017-11-04T06:07:57.323Z,97757.84
2017-11-04T06:10:26.343Z,97756.26
2017-11-04T06:12:54.590Z,97755.81
2017-11-04T06:15:23.611Z,97755.06
2017-11-04T06:17:51.861Z,97773.50
2017-11-04T06:20:20.125Z,97759.86
2017-11-04T06:22:49.134Z,97756.67
2017-11-04T06:25:18.153Z,97756.75
2017-11-04T06:27:46.402Z,97758.77
2017-11-04T06:30:15.425Z,97760.02
2017-11-04T06:32:43.676Z,97764.36
2017-11-04T06:35:11.933Z,97769.95
2017-11-04T06:37:40.952Z,97764.88
2017-11-04T06:40:09.202Z,97778.55
2017-11-04T06:42:38.214Z,97778.47
2017-11-04T06:45:06.480Z,97779.49
2017-11-04T06:47:35.485Z,97777.69
2017-11-04T06:50:03.745Z,97780.56
2017-11-04T06:52:32.758Z,97778.27
2017-11-04T06:55:01.017Z,97778.70
2017-11-04T06:57:30.030Z,97774.60
2017-11-04T06:59:58.283Z,97775.63
2017-11-04T07:02:27.297Z,97779.08
2017-11-04T07:04:55.553Z,97776.79
2017-11-04T07:07:24.581Z,97793.30
2017-11-04T07:09:52.825Z,97786.52
2017-11-04T07:12:21.841Z,97782.89
2017-11-04T07:14:50.094Z,97789.75
2017-11-04T07:17:18.350Z,97788.99
2017-11-04T07:19:47.321Z,97791.23
2017-11-04T07:22:15.569Z,97794.01
2017-11-04T07:24:43.822Z,97793.72
2017-11-04T07:27:12.069Z,97798.39
2017-11-04T07:29:41.089Z,97798.64
2017-11-04T07:32:09.336Z,97798.15
2017-11-04T07:34:37.592Z,97793.20
2017-11-04T07:37:05.846Z,97794.12
2017-11-04T07:39:34.101Z,97783.75
2017-11-04T07:42:02.348Z,97787.45
2017-11-04T07:44:31.370Z,97796.39
2017-11-04T07:46:59.614Z,97786.87
2017-11-04T07:49:28.628Z,97786.69
2017-11-04T07:51:56.874Z,97790.08
2017-11-04T07:54:25.126Z,97772.88
2017-11-04T07:56:53.367Z,97764.69
2017-11-04T07:59:21.603Z,97773.11
2017-11-04T08:01:50.620Z,97773.09
2017-11-04T08:04:21.810Z,97772.16
2017-11-04T08:06:50.826Z,97767.83
2017-11-04T08:09:19.065Z,97763.58
2017-11-04T08:11:47.310Z,97764.95
2017-11-04T08:14:15.554Z,97768.80
2017-11-04T08:16:43.806Z,97761.73
2017-11-04T08:19:12.809Z,97758.54
2017-11-04T08:21:41.063Z,97760.70
2017-11-04T08:24:09.309Z,97767.03
2017-11-04T08:26:37.551Z,97763.95
2017-11-04T08:29:05.789Z,97762.86
2017-11-04T08:31:34.038Z,97759.98
2017-11-04T08:34:02.281Z,97763.12
2017-11-04T08:36:31.289Z,97758.59
2017-11-04T08:38:59.527Z,97769.15
2017-11-04T08:41:27.779Z,97769.88
2017-11-04T08:43:56.782Z,97769.64
2017-11-04T08:46:25.021Z,97781.07
2017-11-04T08:48:53.267Z,97774.58
2017-11-04T08:51:22.285Z,97781.97
2017-11-04T08:53:50.533Z,97784.42
2017-11-04T08:56:19.546Z,97788.08
2017-11-04T08:58:47.796Z,97778.30
2017-11-04T09:01:16.038Z,97791.04
2017-11-04T09:03:44.284Z,97780.91
2017-11-04T09:06:15.351Z,97784.05
2017-11-04T09:08:43.608Z,97784.45
2017-11-04T09:11:11.858Z,97776.21
2017-11-04T09:13:40.101Z,97796.09
2017-11-04T09:16:08.349Z,97787.70
2017-11-04T09:18:36.593Z,97784.92
2017-11-04T09:21:04.845Z,97786.19
2017-11-04T09:23:33.855Z,97776.64
2017-11-04T09:26:02.099Z,97771.03
2017-11-04T09:28:30.350Z,97778.95
2017-11-04T09:30:58.606Z,97783.19
2017-11-04T09:33:26.901Z,97782.69
2017-11-04T09:35:55.242Z,97780.22
2017-11-04T09:38:23.534Z,97775.31
2017-11-04T09:40:51.871Z,97770.66
2017-11-04T09:43:20.945Z,97765.17
2017-11-04T09:45:49.284Z,97771.42
2017-11-04T09:48:17.589Z,97769.37
2017-11-04T09:50:45.894Z,97770.42
2017-11-04T09:53:14.943Z,97768.64
2017-11-04T09:55:43.270Z,97766.16
2017-11-04T09:58:11.592Z,97764.62
2017-11-04T10:00:39.922Z,97766.41
2017-11-04T10:03:09.016Z,97764.45
2017-11-04T10:05:38.109Z,97757.94
2017-11-04T10:08:07.200Z,97747.57
2017-11-04T10:10:36.292Z,97755.27
2017-11-04T10:13:04.613Z,97756.15
2017-11-04T10:15:32.932Z,97755.27
2017-11-04T10:18:01.278Z,97750.46
2017-11-04T10:20:29.601Z,97749.88
2017-11-04T10:22:58.677Z,97743.30
2017-11-04T10:25:27.029Z,97744.49
2017-11-04T10:27:55.344Z,97747.30
2017-11-04T10:30:23.650Z,97741.52
2017-11-04T10:32:51.974Z,97737.14
2017-11-04T10:35:20.305Z,97732.20
2017-11-04T10:37:48.615Z,97732.20
2017-11-04T10:40:16.934Z,97726.02
2017-11-04T10:42:46.057Z,97722.70
2017-11-04T10:45:14.380Z,97724.14
2017-11-04T10:47:42.698Z,97718.23
2017-11-04T10:50:11.757Z,97717.33
2017-11-04T10:52:40.093Z,97713.27
2017-11-04T10:55:08.411Z,97709.08
2017-11-04T10:57:36.742Z,97698.48
2017-11-04T11:00:05.039Z,97699.30
2017-11-04T11:02:33.366Z,97694.25
2017-11-04T11:05:02.458Z,97699.84
2017-11-04T11:07:31.534Z,97700.33
2017-11-04T11:09:59.858Z,97697.90
2017-11-04T11:12:28.146Z,97692.36
2017-11-04T11:14:56.435Z,97693.20
2017-11-04T11:17:24.764Z,97696.60
2017-11-04T11:19:53.830Z,97682.15
2017-11-04T11:22:22.188Z,97679.95
2017-11-04T11:24:50.482Z,97683.47
2017-11-04T11:27:18.785Z,97680.64
2017-11-04T11:29:47.033Z,97686.50
2017-11-04T11:32:15.284Z,97687.98
2017-11-04T11:34:43.533Z,97685.22
2017-11-04T11:37:12.541Z,97692.44
2017-11-04T11:39:40.781Z,97686.47
2017-11-04T11:42:09.801Z,97672.28
2017-11-04T11:44:38.058Z,97668.81
2017-11-04T11:47:07.072Z,97672.83
2017-11-04T11:49:35.322Z,97670.45
2017-11-04T11:52:04.329Z,97662.78
2017-11-04T11:54:32.573Z,97667.38
2017-11-04T11:57:00.830Z,97666.13
2017-11-04T11:59:29.083Z,97665.06
2017-11-04T12:01:57.339Z,97666.03
2017-11-04T12:04:25.585Z,97661.87
2017-11-04T12:06:53.846Z,97651.25
2017-11-04T12:09:22.093Z,97648.77
2017-11-04T12:11:50.355Z,97635.05
2017-11-04T12:14:18.607Z,97633.34
2017-11-04T12:16:47.625Z,97630.03
2017-11-04T12:19:15.873Z,97622.60
2017-11-04T12:21:44.896Z,97622.77
2017-11-04T12:24:13.137Z,97626.51
2017-11-04T12:26:42.160Z,97624.98
2017-11-04T12:29:10.407Z,97615.94
2017-11-04T12:31:39.425Z,97613.20
2017-11-04T12:34:07.680Z,97611.88
2017-11-04T12:36:36.700Z,97611.21
2017-11-04T12:39:04.948Z,97603.35
2017-11-04T12:41:33.963Z,97601.29
2017-11-04T12:44:02.209Z,97603.65
2017-11-04T12:46:31.229Z,97594.68
2017-11-04T12:48:59.473Z,97598.86
2017-11-04T12:51:28.496Z,97597.47
2017-11-04T12:53:56.746Z,97587.89
2017-11-04T12:56:25.764Z,97595.28
2017-11-04T12:58:54.008Z,97580.03
2017-11-04T13:01:22.259Z,97578.73
2017-11-04T13:03:50.505Z,97580.94
2017-11-04T13:06:18.762Z,97587.65
2017-11-04T13:08:47.006Z,97586.34
2017-11-04T13:11:16.035Z,97586.42
2017-11-04T13:13:44.281Z,97584.12
2017-11-04T13:16:13.298Z,97576.64
2017-11-04T13:18:41.546Z,97566.06
2017-11-04T13:21:10.576Z,97568.67
2017-11-04T13:23:38.814Z,97563.68
2017-11-04T13:26:07.834Z,97563.23
2017-11-04T13:28:36.082Z,97567.81
2017-11-04T13:31:05.122Z,97559.56
2017-11-04T13:33:33.357Z,97568.92
2017-11-04T13:36:02.376Z,97573.09
2017-11-04T13:38:30.617Z,97568.70
2017-11-04T13:40:59.633Z,97574.78
2017-11-04T13:43:27.881Z,97574.77
2017-11-04T13:45:56.145Z,97576.70
2017-11-04T13:48:24.398Z,97571.90
2017-11-04T13:50:52.670Z,97582.38
2017-11-04T13:53:20.918Z,97577.26
2017-11-04T13:55:49.165Z,97578.31
2017-11-04T13:58:18.190Z,97581.11
2017-11-04T14:00:46.446Z,97584.92
2017-11-04T14:03:15.465Z,97582.16
2017-11-04T14:05:43.709Z,97577.30
2017-11-04T14:08:12.736Z,97579.06
2017-11-04T14:10:40.973Z,97581.19
2017-11-04T14:13:09.993Z,97580.69
2017-11-04T14:15:38.251Z,97578.56
2017-11-04T14:18:07.262Z,97582.02
2017-11-04T14:20:35.509Z,97581.03
2017-11-04T14:23:04.525Z,97582.49
2017-11-04T14:25:32.777Z,97578.63
2017-11-04T14:28:01.800Z,97576.75
2017-11-04T14:30:30.050Z,97578.56
2017-11-04T14:32:59.074Z,97576.91
2017-11-04T14:35:27.325Z,97572.11
2017-11-04T14:37:56.342Z,97567.20
2017-11-04T14:40:24.593Z,97570.86
2017-11-04T14:42:53.622Z,97569.78
2017-11-04T14:45:21.869Z,97564.38
2017-11-04T14:47:50.125Z,97568.71
2017-11-04T14:50:19.139Z,97572.13
2017-11-04T14:52:47.400Z,97576.02
2017-11-04T14:55:16.406Z,97580.89
2017-11-04T14:57:44.663Z,97579.17
2017-11-04T15:00:13.678Z,97577.46
2017-11-04T15:02:41.934Z,97564.19
2017-11-04T15:05:10.954Z,97560.36
2017-11-04T15:07:39.209Z,97571.52
2017-11-04T15:10:08.229Z,97563.36
2017-11-04T15:12:36.486Z,97565.94
2017-11-04T15:15:04.745Z,97562.92
2017-11-04T15:17:33.770Z,97561.75
2017-11-04T15:20:02.020Z,97571.13
2017-11-04T15:22:31.050Z,97574.50
2017-11-04T15:24:59.304Z,97570.23
2017-11-04T15:27:27.559Z,97572.38
2017-11-04T15:29:56.575Z,97575.38
2017-11-04T15:32:24.834Z,97571.55
2017-11-04T15:34:53.860Z,97573.27
2017-11-04T15:37:22.109Z,97569.08
2017-11-04T15:39:50.372Z,97570.84
2017-11-04T15:42:18.626Z,97571.69
2017-11-04T15:44:46.873Z,97563.19
2017-11-04T15:47:15.130Z,97564.84
2017-11-04T15:49:43.381Z,97565.40
2017-11-04T15:52:12.406Z,97568.50
2017-11-04T15:54:40.661Z,97564.23
2017-11-04T15:57:08.917Z,97563.83
2017-11-04T15:59:37.938Z,97558.76
2017-11-04T16:02:06.190Z,97565.59
2017-11-04T16:04:35.202Z,97569.04
2017-11-04T16:07:03.464Z,97566.10
2017-11-04T16:09:32.469Z,97566.19
2017-11-04T16:12:00.733Z,97565.07
2017-11-04T16:14:29.754Z,97563.35
2017-11-04T16:16:58.013Z,97568.92
2017-11-04T16:19:26.265Z,97569.42
2017-11-04T16:21:55.289Z,97566.89
2017-11-04T16:24:23.545Z,97577.70
2017-11-04T16:26:52.573Z,97574.44
2017-11-04T16:29:20.822Z,97564.59
2017-11-04T16:31:49.083Z,97566.73
2017-11-04T16:34:18.107Z,97567.98
2017-11-04T16:36:46.361Z,97570.25
2017-11-04T16:39:15.379Z,97575.33
2017-11-04T16:41:43.635Z,97578.30
2017-11-04T16:44:11.889Z,97575.98
2017-11-04T16:46:40.918Z,97572.94
2017-11-04T16:49:09.173Z,97578.52
2017-11-04T16:51:38.197Z,97574.18
2017-11-04T16:54:06.441Z,97573.75
2017-11-04T16:56:34.726Z,97582.24
2017-11-04T16:59:02.977Z,97581.38
2017-11-04T17:01:31.226Z,97577.11
2017-11-04T17:03:59.546Z,97574.50
2017-11-04T17:06:28.554Z,97574.97
2017-11-04T17:08:56.809Z,97576.64
2017-11-04T17:11:25.829Z,97580.57
2017-11-04T17:13:54.097Z,97580.23
2017-11-04T17:16:22.354Z,97577.32
2017-11-04T17:18:51.382Z,97575.20
2017-11-04T17:21:19.630Z,97574.76
2017-11-04T17:23:48.753Z,97569.26
2017-11-04T17:26:16.998Z,97568.26
2017-11-04T17:28:46.033Z,97572.56
2017-11-04T17:31:14.277Z,97569.16
2017-11-04T17:33:42.541Z,97567.61
2017-11-04T17:36:11.554Z,97571.05
2017-11-04T17:38:39.820Z,97569.34
2017-11-04T17:41:08.066Z,97568.97
2017-11-04T17:43:36.321Z,97569.45
2017-11-04T17:46:04.577Z,97568.67
2017-11-04T17:48:32.837Z,97562.28
2017-11-04T17:51:01.094Z,97561.17
2017-11-04T17:53:30.131Z,97556.52
2017-11-04T17:55:58.446Z,97553.95
2017-11-04T17:58:26.695Z,97549.22
2017-11-04T18:00:54.955Z,97549.54
2017-11-04T18:03:23.210Z,97547.41
2017-11-04T18:05:51.483Z,97551.28
2017-11-04T18:08:19.739Z,97547.41
2017-11-04T18:10:48.754Z,97549.95
2017-11-04T18:13:17.013Z,97552.11
2017-11-04T18:15:45.267Z,97545.25
2017-11-04T18:18:14.286Z,97542.67
2017-11-04T18:20:42.597Z,97544.36
2017-11-04T18:23:10.843Z,97543.13
2017-11-04T18:25:39.097Z,97542.33
2017-11-04T18:28:08.155Z,97539.77
2017-11-04T18:30:36.411Z,97543.57
2017-11-04T18:33:04.725Z,97537.60
2017-11-04T18:35:33.021Z,97537.23
2017-11-04T18:38:02.633Z,97535.12
2017-11-04T18:40:31.641Z,97537.65
2017-11-04T18:42:59.901Z,97538.50
2017-11-04T18:45:28.154Z,97535.93
2017-11-04T18:47:56.461Z,97533.84
2017-11-04T18:50:24.706Z,97535.08
2017-11-04T18:52:53.014Z,97535.48
2017-11-04T18:55:21.267Z,97540.66
2017-11-04T18:57:50.333Z,97544.92
2017-11-04T19:00:18.580Z,97537.70
2017-11-04T19:02:46.838Z,97534.73
2017-11-04T19:05:15.142Z,97526.70
2017-11-04T19:07:43.398Z,97527.56
2017-11-04T19:10:11.654Z,97526.69
2017-11-04T19:12:39.914Z,97526.73
2017-11-04T19:15:08.935Z,97529.33
2017-11-04T19:17:37.206Z,97530.66
2017-11-04T19:20:05.637Z,97524.67
2017-11-04T19:22:33.980Z,97524.20
2017-11-04T19:25:02.413Z,97518.73
2017-11-04T19:27:30.744Z,97516.95
2017-11-04T19:29:59.047Z,97511.86
2017-11-04T19:32:27.353Z,97508.47
2017-11-04T19:34:56.426Z,97508.19
2017-11-04T19:37:24.766Z,97505.19
2017-11-04T19:39:53.091Z,97508.63
2017-11-04T19:42:21.467Z,97506.91
2017-11-04T19:44:49.836Z,97508.65
2017-11-04T19:47:18.208Z,97511.60
2017-11-04T19:49:47.242Z,97505.73
2017-11-04T19:52:15.546Z,97507.11
2017-11-04T19:54:43.864Z,97504.10
2017-11-04T19:57:12.987Z,97499.78
2017-11-04T19:59:42.138Z,97503.70
2017-11-04T20:02:11.264Z,97499.47
2017-11-04T20:04:39.560Z,97491.48
2017-11-04T20:07:08.617Z,97493.63
2017-11-04T20:09:36.867Z,97494.09
2017-11-04T20:12:05.126Z,97497.57
2017-11-04T20:14:33.397Z,97497.27
2017-11-04T20:17:01.670Z,97501.25
2017-11-04T20:19:29.955Z,97498.73
2017-11-04T20:21:58.220Z,97506.91
2017-11-04T20:24:26.468Z,97503.09
2017-11-04T20:26:55.523Z,97502.67
2017-11-04T20:29:23.812Z,97497.66
2017-11-04T20:31:52.051Z,97496.41
2017-11-04T20:34:20.302Z,97488.34
2017-11-04T20:36:49.357Z,97493.88
2017-11-04T20:39:17.598Z,97495.98
2017-11-04T20:41:45.896Z,97495.95
2017-11-04T20:44:14.143Z,97490.83
2017-11-04T20:46:42.417Z,97490.41
2017-11-04T20:49:10.666Z,97487.05
2017-11-04T20:51:39.728Z,97487.52
2017-11-04T20:54:08.021Z,97490.50
2017-11-04T20:56:36.314Z,97486.70
2017-11-04T20:59:05.372Z,97478.22
2017-11-04T21:01:33.654Z,97476.95
2017-11-04T21:04:01.949Z,97477.34
2017-11-04T21:06:30.242Z,97480.77
2017-11-04T21:08:59.270Z,97469.29
2017-11-04T21:11:27.535Z,97473.95
2017-11-04T21:13:55.786Z,97468.03
2017-11-04T21:16:24.841Z,97465.05
2017-11-04T21:18:53.194Z,97461.26
2017-11-04T21:21:21.473Z,97453.17
2017-11-04T21:23:49.710Z,97455.31
2017-11-04T21:26:18.744Z,97457.83
2017-11-04T21:28:47.862Z,97453.16
2017-11-04T21:31:16.119Z,97456.14
2017-11-04T21:33:44.377Z,97458.27
2017-11-04T21:36:12.610Z,97451.07
2017-11-04T21:38:41.677Z,97451.50
2017-11-04T21:41:09.966Z,97450.23
2017-11-04T21:43:38.214Z,97449.38
2017-11-04T21:46:06.516Z,97448.96
2017-11-04T21:48:34.813Z,97447.26
2017-11-04T21:51:03.876Z,97447.25
2017-11-04T21:53:33.638Z,97444.29
2017-11-04T21:56:01.993Z,97447.25
2017-11-04T21:58:30.806Z,97445.14
2017-11-04T22:00:59.110Z,97435.80
2017-11-04T22:03:27.405Z,97433.70
2017-11-04T22:05:55.701Z,97431.97
2017-11-04T22:08:24.032Z,97435.78
2017-11-04T22:10:52.334Z,97435.78
2017-11-04T22:13:20.583Z,97428.58
2017-11-04T22:15:49.645Z,97427.31
2017-11-04T22:18:18.720Z,97423.48
2017-11-04T22:20:47.013Z,97428.59
2017-11-04T22:23:16.072Z,97426.03
2017-11-04T22:25:44.315Z,97431.13
2017-11-04T22:28:12.573Z,97428.59
2017-11-04T22:30:40.821Z,97425.62
2017-11-04T22:33:09.893Z,97426.89
2017-11-04T22:35:38.143Z,97426.03
2017-11-04T22:38:06.392Z,97425.61
2017-11-04T22:40:34.637Z,97418.83
2017-11-04T22:43:02.881Z,97419.23
2017-11-04T22:45:31.138Z,97419.22
2017-11-04T22:47:59.438Z,97421.28
2017-11-04T22:50:27.678Z,97414.91
2017-11-04T22:52:55.925Z,97412.39
2017-11-04T22:55:25.002Z,97411.53
2017-11-04T22:57:53.241Z,97413.65
2017-11-04T23:00:21.540Z,97406.88
2017-11-04T23:02:50.542Z,97403.05
2017-11-04T23:05:18.840Z,97395.83
2017-11-04T23:07:47.845Z,97391.63
2017-11-04T23:10:16.097Z,97385.25
2017-11-04T23:12:44.391Z,97387.37
2017-11-04T23:15:13.399Z,97381.42
2017-11-04T23:17:41.649Z,97394.12
2017-11-04T23:20:10.746Z,97387.75
2017-11-04T23:22:38.987Z,97376.76
2017-11-04T23:25:07.272Z,97383.08
2017-11-04T23:27:36.275Z,97383.06
2017-11-04T23:30:04.526Z,97387.70
2017-11-04T23:32:32.771Z,97387.71
2017-11-04T23:35:01.022Z,97382.19
2017-11-04T23:37:30.133Z,97379.23
2017-11-04T23:39:58.387Z,97375.81
2017-11-04T23:42:27.396Z,97377.44
2017-11-04T23:44:55.645Z,97379.13
2017-11-04T23:47:23.887Z,97374.39
2017-11-04T23:49:52.142Z,97375.20
2017-11-04T23:52:20.386Z,97375.17
2017-11-04T23:54:49.411Z,97374.31
2017-11-04T23:57:17.653Z,97370.55
2017-11-04T23:59:47.389Z,97365.52
